NK04 weather

Shepard Airport
Constantia, New York, United States

Public forecast

Using degrees Fahrenheit for public forecast. Weather courtesy of forecast.io.

Closest aviation weather report (METAR) to Shepard Airport

Closest report is Syracuse Hancock International Airport, 9.6 nm (17.7 km) SSW. Retrieved 2019/10/23 10:54 UTC (27 minutes ago):

KSYR 231054Z 00000KT 9SM FEW080 07/06 A2987 RMK AO2 SLP112 T00670056

Closest aviation forecast (TAF) to Shepard Airport

Closest forecast is Syracuse Hancock International Airport, 9.6 nm (17.7 km) SSW. Retrieved 2019/10/23 06:48 UTC (5 hours ago):

TAF KSYR 230546Z 2306/2406 24005KT P6SM BKN040 FM231500 25012G19KT P6SM BKN040 FM232200 24009KT P6SM SCT050 FM240200 22006KT P6SM SKC